Time;durP1;ratioP1;P1;durP2;ratioP2;P2;SDS_P1;SDS_P2;PMS_P1;PMS_P2;Temp;Humidity;BMP_temperature;BMP_pressure;BME280_temperature;BME280_humidity;BME280_pressure;Samples;Min_cycle;Max_cycle;Signal;HPM_P1;HPM_P2
2020/12/29 00:00:15;;;;;;;0.10;0.10;;;5.20;16.50;;;;;;5075296;28;20059;-94
2020/12/29 00:02:42;;;;;;;0.25;0.25;;;5.20;17.40;;;;;;5087979;28;20028;-93
2020/12/29 00:05:12;;;;;;;0.25;0.25;;;5.10;59.50;;;;;;5084217;28;20024;-93
2020/12/29 00:07:38;;;;;;;0.10;0.10;;;5.00;99.90;;;;;;5074200;28;20037;-92
2020/12/29 00:10:06;;;;;;;1.52;1.48;;;5.00;99.90;;;;;;5057849;28;20037;-93
2020/12/29 00:12:32;;;;;;;0.90;0.90;;;5.00;99.90;;;;;;5074382;28;20024;-94
2020/12/29 00:14:58;;;;;;;0.45;0.43;;;5.00;42.60;;;;;;5074220;28;20032;-94
2020/12/29 00:17:25;;;;;;;1.55;1.45;;;5.00;99.90;;;;;;5074103;28;20024;-94
2020/12/29 00:19:51;;;;;;;0.15;0.15;;;5.00;64.60;;;;;;5041435;28;20041;-94
2020/12/29 00:22:18;;;;;;;0.20;0.20;;;5.00;99.90;;;;;;5073861;28;20033;-94
2020/12/29 00:24:45;;;;;;;2.00;1.90;;;4.90;1.00;;;;;;5072780;28;20043;-94
2020/12/29 00:27:11;;;;;;;0.68;0.68;;;5.00;99.90;;;;;;5073971;28;20029;-94
2020/12/29 00:29:37;;;;;;;0.25;0.25;;;4.90;99.90;;;;;;5074093;28;20103;-94
2020/12/29 00:32:03;;;;;;;0.77;0.68;;;5.00;99.90;;;;;;5073544;28;20070;-94
2020/12/29 00:34:31;;;;;;;0.10;0.10;;;4.90;99.90;;;;;;5074912;28;20078;-95
2020/12/29 00:36:57;;;;;;;0.20;0.20;;;4.90;99.90;;;;;;5094419;28;20056;-94
2020/12/29 00:39:25;;;;;;;0.52;0.52;;;4.90;99.90;;;;;;5093849;28;20067;-95
2020/12/29 00:41:52;;;;;;;0.32;0.32;;;5.00;99.90;;;;;;5092818;28;20040;-94
2020/12/29 00:44:18;;;;;;;0.20;0.20;;;5.00;99.90;;;;;;5093451;28;20028;-94
2020/12/29 00:46:44;;;;;;;1.35;1.23;;;4.90;99.90;;;;;;5094188;28;20036;-94
2020/12/29 00:49:09;;;;;;;0.08;0.08;;;4.90;99.90;;;;;;5092700;28;20404;-94
2020/12/29 00:51:36;;;;;;;0.22;0.22;;;4.90;99.90;;;;;;5094246;28;20070;-95
2020/12/29 00:54:03;;;;;;;0.00;0.00;;;4.90;1.00;;;;;;5093829;28;20488;-94
2020/12/29 00:56:29;;;;;;;0.00;0.00;;;4.90;99.90;;;;;;5093698;28;20028;-94
2020/12/29 00:58:54;;;;;;;0.10;0.10;;;4.90;99.90;;;;;;5093831;28;20073;-93
2020/12/29 01:01:21;;;;;;;0.05;0.05;;;4.90;55.10;;;;;;5093597;28;20031;-95
2020/12/29 01:03:49;;;;;;;1.02;1.02;;;4.80;99.90;;;;;;5093517;28;20024;-94
2020/12/29 01:06:27;;;;;;;0.32;0.32;;;4.90;99.90;;;;;;5093277;28;20061;-94
2020/12/29 01:08:56;;;;;;;0.63;0.63;;;4.90;99.90;;;;;;5093475;28;20031;-95
2020/12/29 01:11:22;;;;;;;0.47;0.47;;;4.90;99.90;;;;;;5077629;28;20119;-96
2020/12/29 01:13:50;;;;;;;0.15;0.15;;;4.90;99.90;;;;;;5093908;28;20109;-95
2020/12/29 01:16:16;;;;;;;0.10;0.10;;;4.80;99.90;;;;;;5077365;28;20119;-95
2020/12/29 01:18:43;;;;;;;0.10;0.10;;;4.80;99.90;;;;;;5093196;28;20107;-95
2020/12/29 01:21:10;;;;;;;;;;;4.80;99.90;;;;;;5076940;28;20553;-96
2020/12/29 01:23:39;;;;;;;2.13;0.85;;;4.80;99.90;;;;;;5093489;28;19955;-95
2020/12/29 01:26:07;;;;;;;0.10;0.10;;;4.90;99.90;;;;;;5093031;28;20032;-95
2020/12/29 01:28:38;;;;;;;0.30;0.30;;;4.80;99.90;;;;;;5093397;28;20039;-94
2020/12/29 01:31:05;;;;;;;0.10;0.10;;;4.90;99.90;;;;;;5093475;28;20026;-95
2020/12/29 01:33:31;;;;;;;0.90;0.90;;;4.90;99.90;;;;;;5093236;28;20034;-95
2020/12/29 01:35:59;;;;;;;0.20;0.20;;;4.90;97.10;;;;;;5092982;28;20024;-96
2020/12/29 01:38:26;;;;;;;2.53;1.80;;;4.90;60.00;;;;;;5092612;28;20107;-96
2020/12/29 01:40:59;;;;;;;0.75;0.75;;;4.90;19.00;;;;;;5093507;28;20024;-95
2020/12/29 01:43:34;;;;;;;0.28;0.28;;;4.90;1.00;;;;;;5092991;28;20559;-95
2020/12/29 01:46:00;;;;;;;1.77;0.85;;;5.00;1.00;;;;;;5093245;28;20020;-95
2020/12/29 01:48:26;;;;;;;0.30;0.30;;;4.90;99.90;;;;;;5092939;28;20040;-95
2020/12/29 01:50:55;;;;;;;0.28;0.28;;;4.90;99.90;;;;;;5092426;28;20039;-94
2020/12/29 01:53:21;;;;;;;0.47;0.47;;;4.90;1.00;;;;;;5092775;28;20087;-95
2020/12/29 01:55:47;;;;;;;0.20;0.20;;;4.90;99.90;;;;;;5092910;28;20063;-95
2020/12/29 01:58:17;;;;;;;0.40;0.40;;;4.90;99.90;;;;;;5092712;28;20049;-94
2020/12/29 02:00:46;;;;;;;0.08;0.08;;;4.90;99.90;;;;;;5083579;28;20036;-94
2020/12/29 02:03:15;;;;;;;0.10;0.10;;;4.90;1.00;;;;;;5073357;28;20107;-93
2020/12/29 02:05:46;;;;;;;0.10;0.10;;;4.90;99.90;;;;;;5071800;28;20503;-93
2020/12/29 02:08:13;;;;;;;0.60;0.50;;;5.00;99.90;;;;;;5071702;28;20025;-93
2020/12/29 02:10:41;;;;;;;0.43;0.38;;;4.90;50.50;;;;;;5071772;28;20484;-93
2020/12/29 02:13:08;;;;;;;0.10;0.10;;;4.90;1.00;;;;;;5072371;28;20032;-94
2020/12/29 02:15:33;;;;;;;0.25;0.25;;;4.90;99.90;;;;;;5072102;28;20074;-93
2020/12/29 02:17:59;;;;;;;0.73;0.73;;;4.90;89.60;;;;;;5079971;28;20021;-93
2020/12/29 02:20:25;;;;;;;0.03;0.03;;;4.90;1.00;;;;;;5072059;28;20111;-93
2020/12/29 02:22:51;;;;;;;0.30;0.30;;;4.90;99.90;;;;;;5071672;28;20111;-92
2020/12/29 02:25:17;;;;;;;0.05;0.05;;;4.90;99.90;;;;;;5078348;28;20024;-93
2020/12/29 02:27:48;;;;;;;0.00;0.00;;;4.90;99.90;;;;;;5091331;28;20058;-93
2020/12/29 02:30:15;;;;;;;0.57;0.50;;;4.90;18.60;;;;;;5078712;28;20029;-93
2020/12/29 02:32:41;;;;;;;0.00;0.00;;;4.90;1.00;;;;;;5091553;28;20110;-93
2020/12/29 02:35:09;;;;;;;0.50;0.50;;;4.90;1.00;;;;;;5091733;28;20464;-93
2020/12/29 02:37:35;;;;;;;0.35;0.35;;;4.90;99.90;;;;;;5091487;28;20448;-92
2020/12/29 02:40:01;;;;;;;0.20;0.20;;;4.90;99.90;;;;;;5091729;28;20066;-93
2020/12/29 02:42:27;;;;;;;1.13;1.00;;;4.90;9.70;;;;;;5092034;28;20024;-94
2020/12/29 02:44:53;;;;;;;0.57;0.57;;;4.90;99.90;;;;;;5092005;28;20024;-95
2020/12/29 02:47:19;;;;;;;0.22;0.22;;;4.90;99.90;;;;;;5092674;28;20031;-94
2020/12/29 02:49:44;;;;;;;0.10;0.10;;;4.90;20.00;;;;;;5092056;28;20073;-94
2020/12/29 02:52:10;;;;;;;0.00;0.00;;;4.90;99.90;;;;;;5092316;28;20036;-92
2020/12/29 02:54:36;;;;;;;0.00;0.00;;;4.90;99.90;;;;;;5092490;28;20020;-93
2020/12/29 02:57:02;;;;;;;0.10;0.10;;;4.90;99.90;;;;;;5092626;28;20024;-93
2020/12/29 02:59:28;;;;;;;0.10;0.10;;;4.90;1.00;;;;;;5092560;28;20110;-93
2020/12/29 03:01:53;;;;;;;0.00;0.00;;;4.90;10.40;;;;;;5090196;28;20438;-90
2020/12/29 03:04:19;;;;;;;0.00;0.00;;;4.90;99.90;;;;;;5087266;28;20028;-91
2020/12/29 03:06:46;;;;;;;0.10;0.10;;;4.80;99.90;;;;;;5075161;28;20044;-91
2020/12/29 03:09:13;;;;;;;0.10;0.10;;;4.80;99.90;;;;;;5086447;28;20073;-91
2020/12/29 03:11:39;;;;;;;;;;;4.80;99.90;;;;;;5080485;28;20033;-91
2020/12/29 03:14:06;;;;;;;0.23;0.23;;;4.80;99.90;;;;;;5079795;28;19915;-90
2020/12/29 03:16:33;;;;;;;0.10;0.10;;;4.80;99.90;;;;;;5091300;28;20072;-93
2020/12/29 03:19:01;;;;;;;0.05;0.05;;;4.80;99.90;;;;;;5091010;28;20042;-92
2020/12/29 03:21:27;;;;;;;0.10;0.10;;;4.80;98.20;;;;;;5086287;28;20174;-91
2020/12/29 03:23:53;;;;;;;0.00;0.00;;;4.80;99.90;;;;;;5082890;28;20027;-92
2020/12/29 03:26:19;;;;;;;0.00;0.00;;;4.80;99.90;;;;;;5079636;28;20043;-90
2020/12/29 03:28:45;;;;;;;0.03;0.03;;;4.80;90.90;;;;;;5089551;28;20110;-90
2020/12/29 03:31:12;;;;;;;0.00;0.00;;;4.80;92.30;;;;;;5077149;28;20036;-90
2020/12/29 03:33:38;;;;;;;0.10;0.10;;;4.80;99.90;;;;;;5083615;28;20030;-90
2020/12/29 03:36:05;;;;;;;0.20;0.20;;;4.80;99.90;;;;;;5082014;28;20040;-90
2020/12/29 03:38:31;;;;;;;0.00;0.00;;;4.80;99.90;;;;;;5089332;28;20499;-91
2020/12/29 03:40:57;;;;;;;0.10;0.10;;;4.80;99.90;;;;;;5085083;28;20064;-91
2020/12/29 03:43:23;;;;;;;0.10;0.10;;;4.80;99.90;;;;;;5090608;28;20027;-91
2020/12/29 03:45:50;;;;;;;0.70;0.70;;;4.80;99.90;;;;;;5089567;28;20036;-90
2020/12/29 03:48:17;;;;;;;;;;;4.80;99.90;;;;;;5089675;28;20109;-90
2020/12/29 03:50:43;;;;;;;0.00;0.00;;;4.80;99.90;;;;;;5086509;28;20276;-91
2020/12/29 03:53:09;;;;;;;0.10;0.10;;;4.80;94.20;;;;;;5090233;28;20051;-92
2020/12/29 03:55:36;;;;;;;18.63;1.33;;;4.80;1.00;;;;;;5092991;28;20522;-92
2020/12/29 03:58:05;;;;;;;0.00;0.00;;;4.80;1.00;;;;;;5088986;28;20016;-92
2020/12/29 04:00:32;;;;;;;0.10;0.10;;;4.80;99.90;;;;;;5091108;28;20126;-90
2020/12/29 04:02:57;;;;;;;0.00;0.00;;;4.80;99.90;;;;;;5086511;28;20441;-92
2020/12/29 04:05:23;;;;;;;18.42;0.52;;;4.80;94.90;;;;;;5093970;28;20031;-93
2020/12/29 04:07:49;;;;;;;0.00;0.00;;;4.80;1.00;;;;;;5088913;28;20016;-92
2020/12/29 04:10:16;;;;;;;0.20;0.20;;;4.80;99.90;;;;;;5075023;28;20731;-91
2020/12/29 04:12:42;;;;;;;0.03;0.03;;;4.80;99.90;;;;;;5089345;28;20020;-92
2020/12/29 04:15:09;;;;;;;0.20;0.20;;;4.80;99.90;;;;;;5090875;28;20028;-91
2020/12/29 04:17:35;;;;;;;;;;;4.80;50.90;;;;;;5080851;28;20112;-90
2020/12/29 04:20:03;;;;;;;0.03;0.03;;;4.80;1.00;;;;;;5092483;28;20409;-91
2020/12/29 04:22:32;;;;;;;0.10;0.10;;;4.80;1.00;;;;;;5089662;28;20034;-90
2020/12/29 04:24:59;;;;;;;0.00;0.00;;;4.90;1.00;;;;;;5076919;28;20032;-91
2020/12/29 04:27:25;;;;;;;0.17;0.17;;;4.80;1.00;;;;;;5070598;28;20028;-90
2020/12/29 04:29:51;;;;;;;0.10;0.10;;;4.80;1.00;;;;;;5088422;28;20032;-93
2020/12/29 04:32:17;;;;;;;0.00;0.00;;;4.90;1.00;;;;;;5093415;28;20027;-93
2020/12/29 04:34:45;;;;;;;0.10;0.10;;;4.90;1.00;;;;;;5093265;28;20024;-92
2020/12/29 04:37:10;;;;;;;;;;;4.90;1.00;;;;;;5093660;28;20024;-92
2020/12/29 04:39:36;;;;;;;0.00;0.00;;;4.80;1.00;;;;;;5093692;28;19904;-91
2020/12/29 04:42:05;;;;;;;0.10;0.10;;;4.90;99.90;;;;;;5095074;28;20016;-92
2020/12/29 04:44:31;;;;;;;0.10;0.10;;;4.90;3.90;;;;;;5093628;28;20028;-91
2020/12/29 04:46:58;;;;;;;0.52;0.52;;;4.90;1.00;;;;;;5093698;28;20030;-92
2020/12/29 04:49:24;;;;;;;0.10;0.10;;;4.80;99.90;;;;;;5093412;28;20504;-92
2020/12/29 04:51:51;;;;;;;0.10;0.10;;;4.80;99.90;;;;;;5093537;28;20107;-91
2020/12/29 04:54:26;;;;;;;0.10;0.10;;;4.80;1.00;;;;;;5093036;28;20028;-92
2020/12/29 04:56:56;;;;;;;0.10;0.10;;;4.80;99.90;;;;;;5111126;28;20487;-92
2020/12/29 04:59:22;;;;;;;4.47;0.63;;;4.80;99.90;;;;;;5113393;28;20106;-94
2020/12/29 05:01:49;;;;;;;0.10;0.10;;;4.60;99.90;;;;;;5113324;28;20428;-94
2020/12/29 05:04:16;;;;;;;0.10;0.10;;;4.60;99.90;;;;;;5102882;28;20073;-91
2020/12/29 05:06:42;;;;;;;0.10;0.10;;;4.50;99.90;;;;;;5093194;28;20024;-94
2020/12/29 05:09:08;;;;;;;0.10;0.10;;;4.50;1.00;;;;;;5093156;28;20036;-95
2020/12/29 05:11:35;;;;;;;0.10;0.10;;;4.50;99.90;;;;;;5093370;28;20514;-91
2020/12/29 05:14:05;;;;;;;0.10;0.10;;;4.60;1.00;;;;;;5093058;28;20052;-93
2020/12/29 05:16:36;;;;;;;0.20;0.20;;;4.60;99.90;;;;;;5093449;28;20026;-92
2020/12/29 05:19:10;;;;;;;0.00;0.00;;;4.60;99.90;;;;;;5092395;28;20028;-92
2020/12/29 05:21:37;;;;;;;0.10;0.10;;;4.50;99.90;;;;;;5092825;28;20023;-92
2020/12/29 05:24:16;;;;;;;0.00;0.00;;;4.50;99.90;;;;;;5092962;28;20105;-92
2020/12/29 05:26:43;;;;;;;0.05;0.05;;;4.60;99.90;;;;;;5092487;28;20058;-92
2020/12/29 05:29:11;;;;;;;0.20;0.20;;;4.50;99.90;;;;;;5092168;28;20032;-91
2020/12/29 05:31:38;;;;;;;0.10;0.10;;;4.50;1.00;;;;;;5082993;28;20032;-92
2020/12/29 05:34:05;;;;;;;2.40;1.58;;;4.50;1.00;;;;;;5078722;28;20040;-91
2020/12/29 05:36:38;;;;;;;0.20;0.20;;;4.50;19.20;;;;;;5072093;28;20025;-91
2020/12/29 05:39:09;;;;;;;0.38;0.38;;;4.50;93.70;;;;;;5087378;28;20064;-91
2020/12/29 05:41:48;;;;;;;0.00;0.00;;;4.50;99.90;;;;;;5079347;28;20043;-92
2020/12/29 05:44:32;;;;;;;0.10;0.10;;;4.40;99.90;;;;;;5090773;28;20049;-91
2020/12/29 05:47:00;;;;;;;0.10;0.10;;;4.30;99.90;;;;;;5078079;28;20364;-91
2020/12/29 05:49:27;;;;;;;0.15;0.15;;;4.30;99.90;;;;;;5085698;28;20048;-92
2020/12/29 05:51:54;;;;;;;;;;;4.20;99.90;;;;;;5091888;28;20020;-92
2020/12/29 05:54:21;;;;;;;0.10;0.10;;;4.00;99.90;;;;;;5078971;28;19947;-91
2020/12/29 05:56:48;;;;;;;0.22;0.22;;;4.00;99.90;;;;;;5090206;28;20024;-93
2020/12/29 05:59:16;;;;;;;0.65;0.65;;;3.90;99.90;;;;;;5091348;28;20032;-93
2020/12/29 06:01:52;;;;;;;0.10;0.10;;;4.00;1.00;;;;;;5090211;28;20036;-91
2020/12/29 06:04:19;;;;;;;0.20;0.20;;;4.10;1.00;;;;;;5090339;28;20049;-91
2020/12/29 06:06:47;;;;;;;0.15;0.15;;;4.20;61.00;;;;;;5073644;28;20032;-93
2020/12/29 06:09:20;;;;;;;0.10;0.10;;;4.30;99.90;;;;;;5073539;28;20435;-91
2020/12/29 06:11:51;;;;;;;0.00;0.00;;;4.30;99.90;;;;;;5090389;28;20077;-92
2020/12/29 06:14:25;;;;;;;0.10;0.10;;;4.30;99.90;;;;;;5091721;28;20017;-93
2020/12/29 06:16:53;;;;;;;0.00;0.00;;;4.40;99.90;;;;;;5087385;28;20027;-93
2020/12/29 06:19:20;;;;;;;0.08;0.08;;;4.50;99.90;;;;;;5087213;28;20017;-92
2020/12/29 06:22:05;;;;;;;0.10;0.10;;;4.40;99.90;;;;;;5068725;28;20190;-91
2020/12/29 06:24:32;;;;;;;0.00;0.00;;;4.50;99.90;;;;;;5089312;28;20024;-90
2020/12/29 06:27:01;;;;;;;0.00;0.00;;;4.50;99.90;;;;;;5089309;28;20032;-91
2020/12/29 06:29:40;;;;;;;0.10;0.10;;;4.50;99.90;;;;;;5085024;28;20539;-90
2020/12/29 06:32:10;;;;;;;0.00;0.00;;;4.50;6.40;;;;;;5070558;28;20041;-91
2020/12/29 06:34:38;;;;;;;0.10;0.10;;;4.40;99.90;;;;;;5078728;28;20158;-92
2020/12/29 06:37:17;;;;;;;;;;;4.40;99.90;;;;;;5090994;28;20020;-95
2020/12/29 06:39:48;;;;;;;0.20;0.20;;;4.30;99.90;;;;;;5087584;28;19904;-94
2020/12/29 06:42:17;;;;;;;0.47;0.47;;;4.20;22.80;;;;;;5091690;28;20275;-94
2020/12/29 06:44:44;;;;;;;0.10;0.10;;;4.10;1.00;;;;;;5082531;28;20145;-91
2020/12/29 06:47:15;;;;;;;0.50;0.50;;;4.00;99.90;;;;;;5085356;28;20021;-95
2020/12/29 06:49:43;;;;;;;0.25;0.25;;;4.00;99.90;;;;;;5086900;28;20051;-92
2020/12/29 06:52:15;;;;;;;0.10;0.10;;;4.00;99.10;;;;;;5082486;28;20035;-93
2020/12/29 06:54:52;;;;;;;0.57;0.57;;;4.00;99.90;;;;;;5075724;28;20024;-90
2020/12/29 06:57:23;;;;;;;0.00;0.00;;;4.00;99.90;;;;;;5079015;28;20031;-90
2020/12/29 06:59:49;;;;;;;1.35;1.25;;;4.00;1.00;;;;;;5078531;28;20043;-90
2020/12/29 07:02:23;;;;;;;0.10;0.10;;;4.10;49.30;;;;;;5081117;28;20103;-89
2020/12/29 07:04:56;;;;;;;0.10;0.10;;;4.10;99.90;;;;;;5075649;28;20020;-90
2020/12/29 07:07:38;;;;;;;0.10;0.10;;;4.00;89.10;;;;;;5077972;28;20143;-90
2020/12/29 07:10:12;;;;;;;0.10;0.10;;;4.00;99.90;;;;;;5084486;28;20028;-91
2020/12/29 07:12:51;;;;;;;0.10;0.10;;;4.00;99.90;;;;;;5085076;28;20024;-92
2020/12/29 07:15:21;;;;;;;0.10;0.10;;;4.00;1.00;;;;;;5084532;28;20055;-91
2020/12/29 07:17:58;;;;;;;0.38;0.38;;;3.90;99.90;;;;;;5089243;28;20031;-91
2020/12/29 07:20:29;;;;;;;0.10;0.10;;;3.90;99.90;;;;;;5081888;28;20781;-90
2020/12/29 07:23:07;;;;;;;0.15;0.15;;;4.00;99.90;;;;;;5089215;28;20024;-90
2020/12/29 07:25:35;;;;;;;0.10;0.10;;;4.10;1.00;;;;;;5080786;28;20438;-89
2020/12/29 07:28:05;;;;;;;0.63;0.63;;;4.10;1.00;;;;;;5090126;28;20111;-90
2020/12/29 07:30:33;;;;;;;0.52;0.52;;;4.10;25.20;;;;;;5082703;28;20573;-90
2020/12/29 07:33:03;;;;;;;0.10;0.10;;;4.20;1.00;;;;;;5089240;28;20024;-90
2020/12/29 07:35:33;;;;;;;0.10;0.10;;;4.10;1.00;;;;;;5078502;28;20020;-90
2020/12/29 07:38:12;;;;;;;0.55;0.55;;;4.20;99.90;;;;;;5081451;28;20023;-91
2020/12/29 07:40:38;;;;;;;0.10;0.10;;;4.20;30.30;;;;;;5091903;28;20020;-91
2020/12/29 07:43:06;;;;;;;0.38;0.38;;;4.30;18.00;;;;;;5081451;28;20028;-92
2020/12/29 07:45:33;;;;;;;0.10;0.10;;;4.10;99.90;;;;;;5087001;28;20034;-93
2020/12/29 07:48:01;;;;;;;0.00;0.00;;;4.10;99.90;;;;;;5086213;28;20067;-92
2020/12/29 07:50:28;;;;;;;0.00;0.00;;;3.80;99.90;;;;;;5092781;28;20062;-93
2020/12/29 07:53:05;;;;;;;0.10;0.10;;;3.90;99.90;;;;;;5090632;28;20029;-92
2020/12/29 07:55:31;;;;;;;;;;;3.90;99.90;;;;;;5091632;28;20009;-92
2020/12/29 07:58:04;;;;;;;0.10;0.10;;;3.90;99.90;;;;;;5080801;28;20398;-92
2020/12/29 08:00:31;;;;;;;0.00;0.00;;;3.90;99.90;;;;;;5072653;28;20114;-93
2020/12/29 08:02:56;;;;;;;;;;;3.80;99.90;;;;;;5081561;28;20443;-92
2020/12/29 08:05:28;;;;;;;0.10;0.10;;;3.90;99.90;;;;;;5074762;28;19904;-93
2020/12/29 08:07:56;;;;;;;0.60;0.60;;;3.90;99.90;;;;;;5092131;28;20031;-93
2020/12/29 08:10:26;;;;;;;6.90;3.38;;;4.00;99.90;;;;;;5085352;28;20102;-92
2020/12/29 08:13:02;;;;;;;1.15;1.08;;;4.10;99.90;;;;;;5085338;28;20017;-93
2020/12/29 08:15:32;;;;;;;10.02;6.28;;;4.20;99.90;;;;;;5083115;28;20028;-93
2020/12/29 08:18:10;;;;;;;29.40;10.85;;;4.20;99.90;;;;;;5090531;28;20077;-92
2020/12/29 08:20:57;;;;;;;14.15;12.48;;;4.20;99.90;;;;;;5085143;28;20039;-91
2020/12/29 08:23:27;;;;;;;28.02;15.85;;;4.30;99.90;;;;;;5077591;28;20028;-88
2020/12/29 08:25:58;;;;;;;5.13;4.63;;;4.30;99.90;;;;;;5090524;28;20128;-92
2020/12/29 08:28:26;;;;;;;1.65;1.00;;;4.30;99.90;;;;;;5086524;28;20028;-92
2020/12/29 08:30:53;;;;;;;1.17;0.75;;;4.30;99.90;;;;;;5070311;28;20029;-91
2020/12/29 08:33:21;;;;;;;0.00;0.00;;;4.30;99.90;;;;;;5080588;28;20047;-92
2020/12/29 08:36:10;;;;;;;0.98;0.52;;;4.30;99.90;;;;;;5086821;28;20031;-91
2020/12/29 08:38:42;;;;;;;0.00;0.00;;;4.40;99.90;;;;;;5072185;28;20552;-91
2020/12/29 08:41:08;;;;;;;0.40;0.40;;;4.50;99.90;;;;;;5073799;28;20024;-88
2020/12/29 08:43:45;;;;;;;0.15;0.15;;;4.40;99.90;;;;;;5088231;28;20047;-91
2020/12/29 08:46:13;;;;;;;2.45;1.58;;;4.50;99.90;;;;;;5085086;28;20058;-91
2020/12/29 08:48:41;;;;;;;4.05;1.55;;;4.60;99.90;;;;;;5089584;28;20052;-90
2020/12/29 08:51:21;;;;;;;0.80;0.60;;;4.60;99.90;;;;;;5083833;28;20028;-90
2020/12/29 08:53:47;;;;;;;0.55;0.55;;;4.70;99.90;;;;;;5079805;28;20012;-91
2020/12/29 08:56:26;;;;;;;0.32;0.32;;;4.70;99.90;;;;;;5075984;28;20024;-90
2020/12/29 08:58:52;;;;;;;0.10;0.10;;;4.70;99.90;;;;;;5090457;28;20476;-90
2020/12/29 09:01:34;;;;;;;0.10;0.10;;;4.70;99.90;;;;;;5083792;28;20181;-90
2020/12/29 09:04:29;;;;;;;0.20;0.20;;;4.70;99.90;;;;;;5090706;28;20020;-91
2020/12/29 09:07:12;;;;;;;0.10;0.10;;;4.70;99.90;;;;;;5080178;28;20064;-91
2020/12/29 09:09:53;;;;;;;0.20;0.20;;;4.70;99.90;;;;;;5076828;28;20442;-91
2020/12/29 09:12:28;;;;;;;3.42;2.05;;;4.60;99.90;;;;;;5074007;28;20022;-92
2020/12/29 09:14:56;;;;;;;0.10;0.10;;;4.50;99.90;;;;;;5092719;28;20024;-94
2020/12/29 09:17:24;;;;;;;0.03;0.03;;;4.40;99.90;;;;;;5092549;28;20441;-93
2020/12/29 09:20:10;;;;;;;0.10;0.10;;;4.40;99.90;;;;;;5092564;28;20020;-91
2020/12/29 09:22:47;;;;;;;0.45;0.45;;;4.50;99.90;;;;;;5092135;28;20059;-93
2020/12/29 09:25:32;;;;;;;1.55;1.08;;;4.70;99.90;;;;;;5077903;28;20063;-92
2020/12/29 09:28:15;;;;;;;0.03;0.03;;;4.70;99.90;;;;;;5072192;28;20032;-91
2020/12/29 09:30:43;;;;;;;0.20;0.20;;;4.70;99.90;;;;;;5080301;28;20483;-91
2020/12/29 09:33:09;;;;;;;0.15;0.08;;;4.70;99.90;;;;;;5085563;28;20020;-91
2020/12/29 09:35:35;;;;;;;0.30;0.30;;;4.70;99.90;;;;;;5091061;28;20514;-92
2020/12/29 09:38:02;;;;;;;0.15;0.15;;;4.80;99.90;;;;;;5083889;28;20028;-92
2020/12/29 09:40:29;;;;;;;6.53;1.35;;;4.90;99.90;;;;;;5092407;28;20111;-92
2020/12/29 09:42:55;;;;;;;0.00;0.00;;;4.90;99.90;;;;;;5082863;28;20040;-91
2020/12/29 09:45:23;;;;;;;2.15;0.40;;;4.80;99.90;;;;;;5088253;28;20016;-91
2020/12/29 09:47:50;;;;;;;0.35;0.35;;;4.80;99.90;;;;;;5081587;28;20066;-91
2020/12/29 09:50:16;;;;;;;0.00;0.00;;;4.80;99.90;;;;;;5084080;28;20031;-92
2020/12/29 09:52:42;;;;;;;0.38;0.38;;;4.90;99.90;;;;;;5085514;28;20118;-91
2020/12/29 09:55:10;;;;;;;0.10;0.10;;;4.70;99.90;;;;;;5083879;28;20111;-91
2020/12/29 09:57:36;;;;;;;0.10;0.10;;;4.80;99.90;;;;;;5078156;28;20186;-91
2020/12/29 10:00:03;;;;;;;0.08;0.08;;;4.90;99.90;;;;;;5078368;28;20099;-91
2020/12/29 10:02:29;;;;;;;0.20;0.20;;;4.90;99.90;;;;;;5086378;28;20119;-92
2020/12/29 10:04:55;;;;;;;0.52;0.52;;;4.90;99.90;;;;;;5080193;28;20116;-91
2020/12/29 10:07:21;;;;;;;0.45;0.45;;;4.80;99.90;;;;;;5090965;28;20034;-91
2020/12/29 10:09:46;;;;;;;0.10;0.10;;;4.80;99.90;;;;;;5082911;28;20486;-91
2020/12/29 10:12:12;;;;;;;0.10;0.10;;;4.90;99.90;;;;;;5073462;28;20074;-91
2020/12/29 10:14:38;;;;;;;3.47;0.63;;;4.80;99.90;;;;;;5090619;28;20084;-91
2020/12/29 10:17:05;;;;;;;0.20;0.20;;;4.90;99.90;;;;;;5082682;28;20055;-92
2020/12/29 10:19:32;;;;;;;0.47;0.45;;;5.00;99.90;;;;;;5083422;28;20028;-91
2020/12/29 10:21:57;;;;;;;0.10;0.10;;;4.90;99.90;;;;;;5092275;28;20024;-91
2020/12/29 10:24:23;;;;;;;0.10;0.10;;;5.00;99.90;;;;;;5096769;28;20102;-92
2020/12/29 10:26:51;;;;;;;0.10;0.10;;;5.00;99.90;;;;;;5093955;28;20034;-93
2020/12/29 10:29:22;;;;;;;0.10;0.10;;;5.10;99.90;;;;;;5076884;28;20158;-93
2020/12/29 10:31:48;;;;;;;0.10;0.10;;;5.00;99.90;;;;;;5080258;28;20043;-93
2020/12/29 10:34:16;;;;;;;0.00;0.00;;;5.00;99.90;;;;;;5099934;28;20016;-93
2020/12/29 10:36:43;;;;;;;0.00;0.00;;;4.90;99.90;;;;;;5085494;28;20016;-93
2020/12/29 10:39:09;;;;;;;;;;;5.10;99.90;;;;;;5086771;28;20495;-94
2020/12/29 10:41:40;;;;;;;0.10;0.10;;;5.00;99.90;;;;;;5092005;28;19904;-93
2020/12/29 10:44:09;;;;;;;0.10;0.10;;;5.10;99.90;;;;;;5086553;28;20457;-94
2020/12/29 10:46:39;;;;;;;0.05;0.05;;;5.20;99.90;;;;;;5093720;28;20097;-93
2020/12/29 10:49:10;;;;;;;0.10;0.10;;;5.30;99.90;;;;;;5085567;28;20061;-93
2020/12/29 10:51:37;;;;;;;0.25;0.25;;;5.10;99.90;;;;;;5076689;28;20111;-92
2020/12/29 10:54:05;;;;;;;3.53;1.27;;;5.10;99.90;;;;;;5082307;28;20054;-92
2020/12/29 10:56:35;;;;;;;0.30;0.30;;;5.00;99.90;;;;;;5085390;28;20078;-94
2020/12/29 10:59:05;;;;;;;1.35;0.85;;;5.10;99.90;;;;;;5089582;28;20028;-92
2020/12/29 11:01:31;;;;;;;0.45;0.45;;;5.00;99.90;;;;;;5089037;28;20024;-93
2020/12/29 11:03:58;;;;;;;0.00;0.00;;;4.80;99.90;;;;;;5080988;28;20157;-92
2020/12/29 11:06:31;;;;;;;0.10;0.10;;;4.90;99.90;;;;;;5084632;28;20028;-93
2020/12/29 11:08:59;;;;;;;0.85;0.30;;;4.80;99.90;;;;;;5090000;28;20506;-92
2020/12/29 11:11:27;;;;;;;0.05;0.05;;;4.80;99.90;;;;;;5093968;28;20024;-93
2020/12/29 11:14:00;;;;;;;1.00;1.00;;;4.80;99.90;;;;;;5091329;28;20506;-91
2020/12/29 11:16:27;;;;;;;0.10;0.10;;;5.00;99.90;;;;;;5095658;28;20024;-93
2020/12/29 11:18:53;;;;;;;0.08;0.08;;;5.10;99.90;;;;;;5094951;28;20016;-92
2020/12/29 11:21:20;;;;;;;0.10;0.10;;;5.00;99.90;;;;;;5087943;28;20031;-91
2020/12/29 11:23:47;;;;;;;0.10;0.10;;;5.10;99.90;;;;;;5085903;28;20088;-91
2020/12/29 11:26:20;;;;;;;0.10;0.10;;;5.10;99.90;;;;;;5083245;28;20108;-91
2020/12/29 11:28:47;;;;;;;0.10;0.10;;;5.00;99.90;;;;;;5083239;28;20020;-93
2020/12/29 11:31:13;;;;;;;;;;;4.80;99.90;;;;;;5101418;28;20028;-93
2020/12/29 11:33:47;;;;;;;0.10;0.10;;;4.80;99.90;;;;;;5099243;28;19904;-93
2020/12/29 11:36:18;;;;;;;0.10;0.10;;;5.00;99.90;;;;;;5083444;28;20016;-90
2020/12/29 11:38:46;;;;;;;0.10;0.10;;;5.20;99.90;;;;;;5091429;28;20030;-93
2020/12/29 11:41:12;;;;;;;;;;;5.20;99.90;;;;;;5082999;28;20027;-93
2020/12/29 11:43:38;;;;;;;0.20;0.20;;;5.20;99.90;;;;;;5094886;28;20018;-92
2020/12/29 11:46:05;;;;;;;0.08;0.08;;;5.10;99.90;;;;;;5076280;28;20038;-90
2020/12/29 11:48:32;;;;;;;0.10;0.10;;;5.10;99.90;;;;;;5077983;28;20052;-90
2020/12/29 11:50:58;;;;;;;;;;;5.10;99.90;;;;;;5088806;28;20055;-91
2020/12/29 11:53:24;;;;;;;0.10;0.10;;;5.00;99.90;;;;;;5077726;28;20384;-90
2020/12/29 11:55:50;;;;;;;0.08;0.08;;;5.20;99.90;;;;;;5079269;28;20025;-91
2020/12/29 11:58:16;;;;;;;0.00;0.00;;;5.10;99.90;;;;;;5086869;28;20122;-90
2020/12/29 12:00:41;;;;;;;0.00;0.00;;;5.20;99.90;;;;;;5087630;28;20028;-91
2020/12/29 12:03:08;;;;;;;0.00;0.00;;;5.20;99.90;;;;;;5088231;28;20108;-91
2020/12/29 12:05:33;;;;;;;0.10;0.10;;;5.20;99.90;;;;;;5075528;28;20032;-92
2020/12/29 12:07:59;;;;;;;0.00;0.00;;;5.20;99.90;;;;;;5090467;28;20039;-90
2020/12/29 12:10:25;;;;;;;0.10;0.10;;;5.20;99.90;;;;;;5072428;28;20033;-90
2020/12/29 12:12:51;;;;;;;0.10;0.10;;;5.20;99.90;;;;;;5082235;28;20095;-92
2020/12/29 12:15:16;;;;;;;0.20;0.20;;;5.30;99.90;;;;;;5079071;28;20702;-92
2020/12/29 12:17:42;;;;;;;0.85;0.85;;;5.40;99.90;;;;;;5078371;28;20085;-93
2020/12/29 12:20:08;;;;;;;0.10;0.10;;;5.40;99.90;;;;;;5080532;28;20032;-92
2020/12/29 12:22:34;;;;;;;0.08;0.08;;;5.60;99.90;;;;;;5090433;28;20043;-93
2020/12/29 12:25:00;;;;;;;0.00;0.00;;;5.90;99.90;;;;;;5086502;28;20048;-92
2020/12/29 12:27:26;;;;;;;0.10;0.10;;;5.80;99.90;;;;;;5082593;28;20055;-92
2020/12/29 12:29:52;;;;;;;0.10;0.10;;;5.60;99.90;;;;;;5083694;28;20019;-92
2020/12/29 12:32:20;;;;;;;0.08;0.08;;;5.80;99.90;;;;;;5084252;28;20033;-92
2020/12/29 12:34:51;;;;;;;0.45;0.45;;;5.70;99.90;;;;;;5075997;28;20086;-92
2020/12/29 12:37:17;;;;;;;0.10;0.10;;;5.90;99.90;;;;;;5087701;28;20442;-93
2020/12/29 12:39:45;;;;;;;0.00;0.00;;;6.20;99.90;;;;;;5087327;28;20102;-90
2020/12/29 12:42:20;;;;;;;0.08;0.08;;;5.80;99.90;;;;;;5084012;28;20028;-92
2020/12/29 12:44:46;;;;;;;0.10;0.10;;;5.70;99.90;;;;;;5084680;28;20368;-92
2020/12/29 12:47:12;;;;;;;0.73;0.73;;;6.00;99.90;;;;;;5085483;28;20499;-90
2020/12/29 12:49:38;;;;;;;0.10;0.10;;;6.00;99.90;;;;;;5077899;28;20246;-92
2020/12/29 12:52:04;;;;;;;0.20;0.20;;;6.00;99.90;;;;;;5081956;28;20410;-95
2020/12/29 12:54:29;;;;;;;0.20;0.20;;;6.00;10.40;;;;;;5081442;28;20024;-93
2020/12/29 12:56:55;;;;;;;0.10;0.10;;;5.90;94.00;;;;;;5090888;28;20024;-93
2020/12/29 12:59:22;;;;;;;0.10;0.10;;;5.80;99.90;;;;;;5078782;28;20027;-94
2020/12/29 13:01:57;;;;;;;1.65;1.38;;;5.60;99.90;;;;;;5087861;28;20070;-91
2020/12/29 13:04:24;;;;;;;0.10;0.10;;;5.60;99.90;;;;;;5077201;28;20082;-94
2020/12/29 13:06:51;;;;;;;0.10;0.10;;;5.70;1.00;;;;;;5084388;28;20024;-94
2020/12/29 13:09:18;;;;;;;0.08;0.08;;;5.80;1.00;;;;;;5083997;28;20028;-94